Lattingtown, New York
Current Conditions -  °F | °C
As of 5:53 PM on Monday 24 Nov 2014 (Local Time) from KFRG Reporting Station
Clear Clear  
Wind Chill: 63°   Ceiling: Unl
Heat Index: 63°   Visibility: 10mi
Dew Point: 55°   Wind: 18mph
Humidity: 75%   Direction: 230°SW
Pressure: 29.68"   Gusts: 29mph
Location:  40.8809°N, 73.5895°W
Report Text: KFRG 242253Z 23016G25KT 10SM CLR 17/13 A2968 RMK AO2 PK WND 23028/2219 SLP050 T01720128
Loading
Personal Weather Stations






























Interactive Weather Map New forecast layout! Learn more

10-Day Weather Forecast

Advertisements
Track Severe Weather on mobile